Time;durP1;ratioP1;P1;durP2;ratioP2;P2;SDS_P1;SDS_P2;PMS_P1;PMS_P2;Temp;Humidity;BMP_temperature;BMP_pressure;BME280_temperature;BME280_humidity;BME280_pressure;Samples;Min_cycle;Max_cycle;Signal;HPM_P1;HPM_P2
2023/03/26 00:01:45;;;;;;;6.97;2.92;;;7.90;99.90;;;;;;4940198;28;94386;-34
2023/03/26 00:04:11;;;;;;;7.07;2.38;;;7.80;99.90;;;;;;4939905;28;94205;-32
2023/03/26 00:06:38;;;;;;;4.40;2.28;;;7.80;99.90;;;;;;4939715;28;94388;-32
2023/03/26 00:09:08;;;;;;;6.85;2.20;;;7.70;99.90;;;;;;4940071;28;93329;-29
2023/03/26 00:11:34;;;;;;;11.02;2.85;;;7.70;99.90;;;;;;4940286;28;91921;-31
2023/03/26 00:14:01;;;;;;;4.78;2.20;;;7.70;99.90;;;;;;4939735;28;94307;-35
2023/03/26 00:16:29;;;;;;;4.15;1.98;;;7.70;99.90;;;;;;4939785;28;94112;-33
2023/03/26 00:18:56;;;;;;;8.97;2.43;;;7.70;99.90;;;;;;4939536;28;94427;-35
2023/03/26 00:21:27;;;;;;;5.03;1.73;;;7.60;99.90;;;;;;4939370;28;92117;-31
2023/03/26 00:24:05;;;;;;;6.72;2.45;;;7.60;99.90;;;;;;4939608;28;94758;-30
2023/03/26 00:26:34;;;;;;;8.32;3.42;;;7.60;99.90;;;;;;4939606;28;93416;-34
2023/03/26 00:29:02;;;;;;;9.68;2.65;;;7.60;99.90;;;;;;4939092;28;92883;-30
2023/03/26 00:31:28;;;;;;;11.97;3.40;;;7.50;99.90;;;;;;4939555;28;92670;-32
2023/03/26 00:33:55;;;;;;;14.13;2.30;;;7.50;99.90;;;;;;4939849;28;96126;-31
2023/03/26 00:36:24;;;;;;;9.43;3.53;;;7.50;99.90;;;;;;4939534;28;94420;-30
2023/03/26 00:38:51;;;;;;;6.65;3.70;;;7.50;99.90;;;;;;4938950;28;94461;-30
2023/03/26 00:41:25;;;;;;;5.63;3.57;;;7.50;99.90;;;;;;4939471;28;93330;-30
2023/03/26 00:43:55;;;;;;;6.57;2.90;;;7.50;99.90;;;;;;4938469;28;95438;-31
2023/03/26 00:46:22;;;;;;;2.78;1.98;;;7.50;99.90;;;;;;4939435;28;95385;-31
2023/03/26 00:48:47;;;;;;;7.43;3.20;;;7.50;99.90;;;;;;4939610;28;92140;-30
2023/03/26 00:51:15;;;;;;;6.50;3.25;;;7.50;99.90;;;;;;4939527;28;94931;-31
2023/03/26 00:53:42;;;;;;;5.18;2.50;;;7.50;99.90;;;;;;4938988;28;94500;-32
2023/03/26 00:56:08;;;;;;;6.32;3.20;;;7.50;99.90;;;;;;4938233;28;95104;-29
2023/03/26 00:58:34;;;;;;;14.15;3.15;;;7.50;99.90;;;;;;4922352;28;93075;-31
2023/03/26 01:01:05;;;;;;;6.90;3.42;;;7.50;99.90;;;;;;4939417;28;91802;-35
2023/03/26 01:03:33;;;;;;;6.53;2.63;;;7.50;99.90;;;;;;4939439;28;94297;-29
2023/03/26 01:06:06;;;;;;;4.15;3.00;;;7.50;99.90;;;;;;4938640;28;94785;-34
2023/03/26 01:08:45;;;;;;;9.55;2.42;;;7.50;99.90;;;;;;4939915;28;93599;-30
2023/03/26 01:11:22;;;;;;;5.32;2.50;;;7.50;99.90;;;;;;4939012;28;92221;-32
2023/03/26 01:14:03;;;;;;;11.00;2.67;;;7.50;99.90;;;;;;4921641;28;94486;-31
2023/03/26 01:16:36;;;;;;;3.28;2.97;;;7.40;99.90;;;;;;4939059;28;94591;-30
2023/03/26 01:19:09;;;;;;;4.50;2.72;;;7.40;99.90;;;;;;4938542;28;93071;-28
2023/03/26 01:21:38;;;;;;;5.35;3.17;;;7.40;99.90;;;;;;4938874;28;93449;-31
2023/03/26 01:24:08;;;;;;;4.82;3.83;;;7.40;99.90;;;;;;4938422;28;94571;-33
2023/03/26 01:26:46;;;;;;;9.68;3.15;;;7.30;99.90;;;;;;4939309;28;94559;-31
2023/03/26 01:29:38;;;;;;;7.73;3.10;;;7.30;99.90;;;;;;4939005;28;92841;-32
2023/03/26 01:32:26;;;;;;;4.18;2.53;;;7.30;99.90;;;;;;4939355;28;94271;-31
2023/03/26 01:35:21;;;;;;;4.72;2.75;;;7.30;99.90;;;;;;4938186;28;94599;-32
2023/03/26 01:38:21;;;;;;;5.93;2.60;;;7.20;99.90;;;;;;4938047;28;95221;-30
2023/03/26 01:41:08;;;;;;;6.47;2.05;;;7.30;99.90;;;;;;4938664;28;94857;-29
2023/03/26 01:43:46;;;;;;;9.15;3.90;;;7.20;99.90;;;;;;4939365;28;92293;-31
2023/03/26 01:46:14;;;;;;;7.95;2.13;;;7.20;99.90;;;;;;4938300;28;94681;-34
2023/03/26 01:48:43;;;;;;;5.13;3.10;;;7.20;99.90;;;;;;4937683;28;94686;-33
2023/03/26 01:51:11;;;;;;;13.73;4.18;;;7.10;99.90;;;;;;4937910;28;94674;-32
2023/03/26 01:53:42;;;;;;;5.77;2.93;;;7.10;99.90;;;;;;4938398;28;92648;-31
2023/03/26 01:56:25;;;;;;;8.35;2.72;;;7.10;99.90;;;;;;4937648;28;95210;-33
2023/03/26 01:58:50;;;;;;;5.22;2.75;;;7.00;99.90;;;;;;4938685;28;94989;-30
2023/03/26 02:01:35;;;;;;;3.67;1.80;;;7.00;99.90;;;;;;4937226;28;93103;-30
2023/03/26 02:04:22;;;;;;;10.55;2.28;;;7.00;99.90;;;;;;4938280;28;94345;-29
2023/03/26 02:06:57;;;;;;;3.60;2.22;;;7.00;99.90;;;;;;4937995;28;94980;-32
2023/03/26 02:09:29;;;;;;;4.55;1.58;;;6.90;99.90;;;;;;4938187;28;94194;-32
2023/03/26 02:11:55;;;;;;;2.60;1.88;;;6.80;99.90;;;;;;4937603;28;94685;-32
2023/03/26 02:14:21;;;;;;;6.00;2.60;;;6.80;99.90;;;;;;4937897;28;94838;-32
2023/03/26 02:16:47;;;;;;;6.10;2.30;;;6.80;99.90;;;;;;4937810;28;94425;-29
2023/03/26 02:19:20;;;;;;;5.55;2.17;;;6.70;99.90;;;;;;4920459;28;94595;-32
2023/03/26 02:21:50;;;;;;;5.10;4.15;;;6.70;99.90;;;;;;4938635;28;92685;-31
2023/03/26 02:24:17;;;;;;;6.60;2.40;;;6.70;99.90;;;;;;4938012;28;94629;-32
2023/03/26 02:26:43;;;;;;;9.77;3.47;;;6.70;99.90;;;;;;4936229;28;93852;-31
2023/03/26 02:29:09;;;;;;;5.93;2.47;;;6.60;99.90;;;;;;4937368;28;95423;-31
2023/03/26 02:31:35;;;;;;;5.78;2.50;;;6.60;99.90;;;;;;4938818;28;94977;-33
2023/03/26 02:34:01;;;;;;;6.55;3.78;;;6.60;99.90;;;;;;4938090;28;93647;-30
2023/03/26 02:36:27;;;;;;;16.20;3.00;;;6.50;99.90;;;;;;4937562;28;93710;-33
2023/03/26 02:38:54;;;;;;;10.38;2.80;;;6.50;99.90;;;;;;4937255;28;96319;-30
2023/03/26 02:41:20;;;;;;;4.15;2.35;;;6.40;99.90;;;;;;4937447;28;93144;-31
2023/03/26 02:43:46;;;;;;;4.97;2.55;;;6.40;99.90;;;;;;4938281;28;93986;-31
2023/03/26 02:46:11;;;;;;;2.95;1.75;;;6.40;99.90;;;;;;4937216;28;94827;-29
2023/03/26 02:48:37;;;;;;;4.28;3.03;;;6.40;99.90;;;;;;4937807;28;94673;-35
2023/03/26 02:51:03;;;;;;;8.82;3.03;;;6.40;99.90;;;;;;4937228;28;93262;-31
2023/03/26 02:53:29;;;;;;;3.78;2.03;;;6.40;99.90;;;;;;4937596;28;92142;-32
2023/03/26 02:55:59;;;;;;;5.22;2.45;;;6.40;99.90;;;;;;4937241;28;95181;-35
2023/03/26 02:58:25;;;;;;;8.20;2.75;;;6.30;99.90;;;;;;4937251;28;94762;-34
2023/03/26 03:00:54;;;;;;;5.35;2.45;;;6.30;99.90;;;;;;4937824;28;92605;-34
2023/03/26 03:03:24;;;;;;;5.68;2.08;;;6.30;99.90;;;;;;4941539;28;93377;-33
2023/03/26 03:05:51;;;;;;;5.88;2.97;;;6.20;99.90;;;;;;4944479;28;94065;-30
2023/03/26 03:08:22;;;;;;;6.15;3.00;;;6.10;99.90;;;;;;4944578;28;94664;-29
2023/03/26 03:11:09;;;;;;;15.07;3.05;;;6.10;99.90;;;;;;4943861;28;92121;-34
2023/03/26 03:13:35;;;;;;;6.00;2.78;;;6.10;99.90;;;;;;4943528;28;92888;-29
2023/03/26 03:16:00;;;;;;;4.65;3.53;;;6.10;99.90;;;;;;4943115;28;95736;-33
2023/03/26 03:18:26;;;;;;;5.88;2.60;;;6.10;99.90;;;;;;4943123;28;95649;-34
2023/03/26 03:20:52;;;;;;;5.07;2.85;;;6.10;99.90;;;;;;4943709;28;93388;-31
2023/03/26 03:23:19;;;;;;;6.57;2.00;;;6.20;99.90;;;;;;4943954;28;93360;-29
2023/03/26 03:25:44;;;;;;;9.90;2.85;;;6.20;99.90;;;;;;4942894;28;94015;-31
2023/03/26 03:28:11;;;;;;;5.97;2.95;;;6.20;99.90;;;;;;4943834;28;95855;-31
2023/03/26 03:30:36;;;;;;;3.28;1.88;;;6.20;99.90;;;;;;4943719;28;92949;-33
2023/03/26 03:33:02;;;;;;;16.30;3.30;;;6.30;99.90;;;;;;4943687;28;93468;-35
2023/03/26 03:35:29;;;;;;;7.35;3.83;;;6.30;99.90;;;;;;4944199;28;95437;-33
2023/03/26 03:37:56;;;;;;;3.85;2.40;;;6.30;99.90;;;;;;4942779;28;94923;-33
2023/03/26 03:40:22;;;;;;;8.43;2.63;;;6.40;99.90;;;;;;4943269;28;93704;-32
2023/03/26 03:42:48;;;;;;;5.18;2.40;;;6.40;99.90;;;;;;4943481;28;93903;-30
2023/03/26 03:45:14;;;;;;;4.57;2.67;;;6.40;99.90;;;;;;4943495;28;94091;-31
2023/03/26 03:47:39;;;;;;;5.22;1.83;;;6.40;99.90;;;;;;4943093;28;94042;-35
2023/03/26 03:50:06;;;;;;;8.63;2.33;;;6.40;99.90;;;;;;4926028;28;93994;-30
2023/03/26 03:52:32;;;;;;;5.30;2.45;;;6.30;99.90;;;;;;4942498;28;94383;-32
2023/03/26 03:54:59;;;;;;;7.25;2.50;;;6.30;99.90;;;;;;4942514;28;95049;-29
2023/03/26 03:57:25;;;;;;;3.42;2.40;;;6.30;99.90;;;;;;4943274;28;94503;-33
2023/03/26 03:59:51;;;;;;;11.85;2.95;;;6.20;99.90;;;;;;4943485;28;92601;-29
2023/03/26 04:02:24;;;;;;;5.88;2.08;;;6.20;99.90;;;;;;4943416;28;92112;-31
2023/03/26 04:04:56;;;;;;;6.70;3.22;;;6.30;99.90;;;;;;4941990;28;95672;-30
2023/03/26 04:07:25;;;;;;;5.70;1.98;;;6.20;99.90;;;;;;4942537;28;95000;-31
2023/03/26 04:09:51;;;;;;;8.63;3.80;;;6.20;99.90;;;;;;4943352;28;94694;-33
2023/03/26 04:12:17;;;;;;;4.47;2.83;;;6.20;99.90;;;;;;4943070;28;94797;-35
2023/03/26 04:14:43;;;;;;;7.13;2.95;;;6.10;99.90;;;;;;4939671;28;94816;-32
2023/03/26 04:17:09;;;;;;;8.15;3.85;;;6.00;99.90;;;;;;4939043;28;95009;-30
2023/03/26 04:19:35;;;;;;;7.35;2.20;;;6.00;99.90;;;;;;4940252;28;92802;-32
2023/03/26 04:22:01;;;;;;;8.15;3.28;;;5.90;99.90;;;;;;4939485;28;92465;-30
2023/03/26 04:24:37;;;;;;;7.55;3.10;;;5.90;99.90;;;;;;4937870;28;94449;-34
2023/03/26 04:27:05;;;;;;;6.07;2.05;;;5.80;99.90;;;;;;4939378;28;94391;-32
2023/03/26 04:29:41;;;;;;;8.93;3.50;;;5.80;99.90;;;;;;4939528;28;94130;-31
2023/03/26 04:32:11;;;;;;;10.15;2.95;;;5.80;99.90;;;;;;4939468;28;94327;-31
2023/03/26 04:34:37;;;;;;;5.40;2.30;;;5.80;99.90;;;;;;4939411;28;94347;-32
2023/03/26 04:37:03;;;;;;;6.18;2.30;;;5.70;99.90;;;;;;4938773;28;94863;-32
2023/03/26 04:39:32;;;;;;;14.77;3.88;;;5.70;99.90;;;;;;4940041;28;93382;-32
2023/03/26 04:41:59;;;;;;;10.77;2.40;;;5.70;99.90;;;;;;4939393;28;92111;-31
2023/03/26 04:44:25;;;;;;;5.85;2.38;;;5.60;99.90;;;;;;4938889;28;95024;-31
2023/03/26 04:46:54;;;;;;;3.22;1.50;;;5.50;99.90;;;;;;4939292;28;94744;-33
2023/03/26 04:49:19;;;;;;;;;;;5.60;99.90;;;;;;4940642;28;94674;-29
2023/03/26 04:51:46;;;;;;;5.25;2.30;;;5.60;99.90;;;;;;4939889;28;93240;-30
2023/03/26 04:54:13;;;;;;;3.67;2.28;;;5.60;99.90;;;;;;4939008;28;95251;-33
2023/03/26 04:56:48;;;;;;;9.40;2.53;;;5.60;99.90;;;;;;4939009;28;95356;-31
2023/03/26 04:59:25;;;;;;;4.70;2.88;;;5.60;99.90;;;;;;4939008;28;94829;-30
2023/03/26 05:01:52;;;;;;;5.90;1.90;;;5.60;99.90;;;;;;4938986;28;93702;-33
2023/03/26 05:04:18;;;;;;;3.97;1.58;;;5.70;99.90;;;;;;4939574;28;95408;-32
2023/03/26 05:06:43;;;;;;;3.58;2.05;;;5.60;99.90;;;;;;4939122;28;94867;-34
2023/03/26 05:09:10;;;;;;;3.75;2.00;;;5.70;99.90;;;;;;4939635;28;92657;-31
2023/03/26 05:11:36;;;;;;;3.67;2.90;;;5.70;99.90;;;;;;4939567;28;91864;-32
2023/03/26 05:14:02;;;;;;;7.72;3.17;;;5.70;99.90;;;;;;4938669;28;94273;-30
2023/03/26 05:16:28;;;;;;;7.50;2.75;;;5.70;99.90;;;;;;4939225;28;94174;-33
2023/03/26 05:18:54;;;;;;;6.50;2.75;;;5.70;99.90;;;;;;4938355;28;95172;-31
2023/03/26 05:21:21;;;;;;;4.90;2.58;;;5.80;99.90;;;;;;4938359;28;93107;-33
2023/03/26 05:23:46;;;;;;;4.97;2.97;;;5.80;99.90;;;;;;4938230;28;94308;-34
2023/03/26 05:26:12;;;;;;;5.70;1.95;;;5.80;99.90;;;;;;4938088;28;94581;-33
2023/03/26 05:28:38;;;;;;;5.97;2.92;;;5.80;99.90;;;;;;4938769;28;93061;-30
2023/03/26 05:31:04;;;;;;;8.00;3.97;;;5.80;99.90;;;;;;4921057;28;94387;-32
2023/03/26 05:33:30;;;;;;;10.07;3.42;;;5.80;99.90;;;;;;4936722;28;96217;-34
2023/03/26 05:36:08;;;;;;;4.10;2.60;;;5.90;99.90;;;;;;4938574;28;92952;-30
2023/03/26 05:38:34;;;;;;;6.18;2.50;;;5.80;99.90;;;;;;4939130;28;93624;-30
2023/03/26 05:41:06;;;;;;;6.43;3.15;;;5.90;99.90;;;;;;4938230;28;94179;-32
2023/03/26 05:43:32;;;;;;;8.30;2.38;;;5.90;99.90;;;;;;4938083;28;95460;-31
2023/03/26 05:45:58;;;;;;;6.03;3.28;;;5.90;99.90;;;;;;4937821;28;95640;-31
2023/03/26 05:48:24;;;;;;;8.23;2.90;;;6.00;99.90;;;;;;4938670;28;93350;-34
2023/03/26 05:50:52;;;;;;;7.60;3.33;;;6.00;99.90;;;;;;4937669;28;94508;-32
2023/03/26 05:53:19;;;;;;;4.63;3.20;;;6.00;99.90;;;;;;4938783;28;94812;-32
2023/03/26 05:55:49;;;;;;;6.43;3.20;;;6.00;99.90;;;;;;4937865;28;94046;-31
2023/03/26 05:58:16;;;;;;;10.27;3.42;;;6.00;99.90;;;;;;4938346;28;93840;-32
2023/03/26 06:00:47;;;;;;;9.70;3.55;;;6.00;99.90;;;;;;4938722;28;93235;-30
2023/03/26 06:03:13;;;;;;;6.20;3.08;;;6.00;99.90;;;;;;4937835;28;94710;-32
2023/03/26 06:05:39;;;;;;;7.57;3.28;;;6.00;99.90;;;;;;4938125;28;94805;-33
2023/03/26 06:08:05;;;;;;;5.80;2.67;;;6.10;99.90;;;;;;4937799;28;94430;-32
2023/03/26 06:10:31;;;;;;;5.85;3.72;;;6.10;99.90;;;;;;4938231;28;93409;-30
2023/03/26 06:12:57;;;;;;;9.68;4.45;;;6.10;99.90;;;;;;4937587;28;95177;-30
2023/03/26 06:15:23;;;;;;;6.13;2.92;;;6.10;99.90;;;;;;4938809;28;94299;-30
2023/03/26 06:17:48;;;;;;;5.70;2.70;;;6.20;99.90;;;;;;4937806;28;94349;-32
2023/03/26 06:20:14;;;;;;;9.88;3.15;;;6.20;99.90;;;;;;4938060;28;92983;-30
2023/03/26 06:22:41;;;;;;;7.57;2.47;;;6.20;99.90;;;;;;4937014;28;94682;-32
2023/03/26 06:25:07;;;;;;;3.92;3.05;;;6.20;99.90;;;;;;4938108;28;94507;-31
2023/03/26 06:27:32;;;;;;;7.05;3.05;;;6.20;99.90;;;;;;4938429;28;93296;-32
2023/03/26 06:29:58;;;;;;;5.22;2.28;;;6.20;99.90;;;;;;4937417;28;93121;-32
2023/03/26 06:32:23;;;;;;;3.08;2.55;;;6.30;99.90;;;;;;4936984;28;96489;-31
2023/03/26 06:34:49;;;;;;;4.70;3.53;;;6.30;99.90;;;;;;4938026;28;95307;-30
2023/03/26 06:37:15;;;;;;;6.85;3.63;;;6.30;99.90;;;;;;4936798;28;93173;-30
2023/03/26 06:39:41;;;;;;;7.32;3.60;;;6.40;99.90;;;;;;4937807;28;94651;-30
2023/03/26 06:42:07;;;;;;;3.92;2.47;;;6.40;99.90;;;;;;4937311;28;95167;-31
2023/03/26 06:44:33;;;;;;;6.70;3.55;;;6.40;99.90;;;;;;4937265;28;94576;-34
2023/03/26 06:46:58;;;;;;;9.40;3.28;;;6.40;99.90;;;;;;4937207;28;93697;-31
2023/03/26 06:49:24;;;;;;;5.78;2.67;;;6.50;99.90;;;;;;4938029;28;92456;-31
2023/03/26 06:51:49;;;;;;;11.18;3.42;;;6.50;99.90;;;;;;4937717;28;94120;-32
2023/03/26 06:54:15;;;;;;;8.05;4.47;;;6.60;99.90;;;;;;4919654;28;94192;-32
2023/03/26 06:56:41;;;;;;;10.40;3.97;;;6.60;99.90;;;;;;4935790;28;93216;-30
2023/03/26 06:59:07;;;;;;;13.25;3.00;;;6.60;99.90;;;;;;4936250;28;93958;-32
2023/03/26 07:01:33;;;;;;;14.10;5.28;;;6.70;99.90;;;;;;4933968;28;94549;-33
2023/03/26 07:03:58;;;;;;;12.80;4.40;;;6.70;99.90;;;;;;4937404;28;93665;-29
2023/03/26 07:06:24;;;;;;;7.47;3.75;;;6.80;99.90;;;;;;4919866;28;93605;-33
2023/03/26 07:08:50;;;;;;;11.27;4.20;;;6.80;99.90;;;;;;4937282;28;93172;-33
2023/03/26 07:11:18;;;;;;;8.80;3.45;;;6.80;99.90;;;;;;4936760;28;94327;-33
2023/03/26 07:13:46;;;;;;;22.10;4.32;;;6.90;99.90;;;;;;4937015;28;94656;-30
2023/03/26 07:16:12;;;;;;;21.42;4.20;;;6.90;99.90;;;;;;4937571;28;94723;-34
2023/03/26 07:18:38;;;;;;;8.90;3.08;;;7.00;99.90;;;;;;4937653;28;95388;-32
2023/03/26 07:21:04;;;;;;;9.80;3.83;;;7.00;99.90;;;;;;4936219;28;95403;-33
2023/03/26 07:23:30;;;;;;;8.07;3.40;;;7.00;99.90;;;;;;4935687;28;95206;-35
2023/03/26 07:25:56;;;;;;;11.32;5.25;;;7.10;99.90;;;;;;4937068;28;94259;-33
2023/03/26 07:28:36;;;;;;;13.80;3.50;;;7.10;99.90;;;;;;4936940;28;92227;-32
2023/03/26 07:31:19;;;;;;;10.65;3.78;;;7.20;99.90;;;;;;4936511;28;94464;-31
2023/03/26 07:33:54;;;;;;;11.05;3.88;;;7.20;99.90;;;;;;4937404;28;95033;-31
2023/03/26 07:36:49;;;;;;;26.73;5.40;;;7.20;99.90;;;;;;4937063;28;94084;-34
2023/03/26 07:39:40;;;;;;;15.60;4.22;;;7.30;99.90;;;;;;4937013;28;92679;-31
2023/03/26 07:42:30;;;;;;;8.13;2.92;;;7.30;99.90;;;;;;4937341;28;94217;-34
2023/03/26 07:45:15;;;;;;;16.98;3.88;;;7.20;99.90;;;;;;4936629;28;94733;-33
2023/03/26 07:47:43;;;;;;;7.80;3.72;;;7.30;99.90;;;;;;4936240;28;94393;-31
2023/03/26 07:50:17;;;;;;;6.53;3.88;;;7.30;99.90;;;;;;4939583;28;92828;-32
2023/03/26 07:52:43;;;;;;;10.00;2.25;;;7.30;99.90;;;;;;4922614;28;95991;-31
2023/03/26 07:55:14;;;;;;;9.63;4.13;;;7.30;99.90;;;;;;4939552;28;94929;-34
2023/03/26 07:57:46;;;;;;;9.65;4.97;;;7.40;99.90;;;;;;4938507;28;92170;-33
2023/03/26 08:00:20;;;;;;;6.95;3.65;;;7.40;99.90;;;;;;4938731;28;92470;-32
2023/03/26 08:03:26;;;;;;;10.70;3.38;;;7.50;99.90;;;;;;4936619;28;94867;-35
2023/03/26 08:06:14;;;;;;;12.40;5.65;;;7.40;99.90;;;;;;4936820;28;95557;-34
2023/03/26 08:09:14;;;;;;;9.80;3.90;;;7.40;99.90;;;;;;4938229;28;93434;-33
2023/03/26 08:11:55;;;;;;;7.60;3.15;;;7.40;99.90;;;;;;4938455;28;93097;-32
2023/03/26 08:14:36;;;;;;;5.97;2.75;;;7.40;99.90;;;;;;4938067;28;96142;-30
2023/03/26 08:17:09;;;;;;;12.35;4.15;;;7.40;99.90;;;;;;4939562;28;95481;-34
2023/03/26 08:19:43;;;;;;;9.70;4.05;;;7.40;99.90;;;;;;4940074;28;93383;-30
2023/03/26 08:22:24;;;;;;;10.70;2.65;;;7.40;99.90;;;;;;4939178;28;92093;-32
2023/03/26 08:24:52;;;;;;;15.18;4.18;;;7.40;99.90;;;;;;4939148;28;95052;-30
2023/03/26 08:27:22;;;;;;;13.37;2.47;;;7.40;99.90;;;;;;4937719;28;94852;-32
2023/03/26 08:30:07;;;;;;;4.18;2.55;;;7.50;99.90;;;;;;4939537;28;94424;-33
2023/03/26 08:32:33;;;;;;;7.60;4.03;;;7.50;99.90;;;;;;4939134;28;93545;-32
2023/03/26 08:35:00;;;;;;;10.98;2.78;;;7.60;99.90;;;;;;4938356;28;94523;-29
2023/03/26 08:37:26;;;;;;;7.43;3.38;;;7.60;99.90;;;;;;4938622;28;94670;-32
2023/03/26 08:39:52;;;;;;;17.35;4.30;;;7.60;99.90;;;;;;4938851;28;95134;-34
2023/03/26 08:42:17;;;;;;;14.55;3.80;;;7.60;99.90;;;;;;4939839;28;93406;-32
2023/03/26 08:45:17;;;;;;;12.10;2.97;;;7.70;99.90;;;;;;4938182;28;94787;-28
2023/03/26 08:48:10;;;;;;;10.32;3.28;;;7.70;99.90;;;;;;4938306;28;94250;-30
2023/03/26 08:51:16;;;;;;;14.38;3.72;;;7.70;99.90;;;;;;4939601;28;92333;-30
2023/03/26 08:53:49;;;;;;;8.93;3.65;;;7.70;99.90;;;;;;4939681;28;92634;-32
2023/03/26 08:56:52;;;;;;;11.23;2.75;;;7.70;99.90;;;;;;4937544;28;95041;-34
2023/03/26 08:59:55;;;;;;;43.55;5.03;;;7.80;99.90;;;;;;4934717;28;94083;-31
2023/03/26 09:02:30;;;;;;;23.15;5.30;;;7.80;99.90;;;;;;4933608;28;93552;-29
2023/03/26 09:05:17;;;;;;;22.63;3.90;;;7.80;99.90;;;;;;4937054;28;93242;-34
2023/03/26 09:07:51;;;;;;;5.30;2.13;;;7.90;99.90;;;;;;4935918;28;95733;-32
2023/03/26 09:10:19;;;;;;;10.52;3.15;;;7.90;99.90;;;;;;4936009;28;95323;-30
2023/03/26 09:13:04;;;;;;;14.15;3.50;;;7.90;99.90;;;;;;4937035;28;93827;-29
2023/03/26 09:15:57;;;;;;;10.60;3.60;;;7.90;99.90;;;;;;4937110;28;92097;-28
2023/03/26 09:18:53;;;;;;;8.70;2.40;;;7.90;99.90;;;;;;4936370;28;94705;-31
2023/03/26 09:21:26;;;;;;;7.03;3.30;;;8.00;99.90;;;;;;4936593;28;94516;-33
2023/03/26 09:23:55;;;;;;;10.65;3.83;;;8.00;99.90;;;;;;4936510;28;93080;-31
2023/03/26 09:26:24;;;;;;;16.00;3.67;;;8.00;99.90;;;;;;4935571;28;93796;-31
2023/03/26 09:29:34;;;;;;;11.20;3.10;;;8.00;99.90;;;;;;4936126;28;94333;-31
2023/03/26 09:32:12;;;;;;;7.55;3.33;;;8.10;99.90;;;;;;4936511;28;95417;-30
2023/03/26 09:35:00;;;;;;;8.07;3.85;;;8.10;99.90;;;;;;4936208;28;95518;-30
2023/03/26 09:38:09;;;;;;;14.57;4.47;;;8.10;99.90;;;;;;4935830;28;94513;-30
2023/03/26 09:40:45;;;;;;;9.77;2.97;;;8.10;99.90;;;;;;4936342;28;95623;-30
2023/03/26 09:43:35;;;;;;;12.40;3.53;;;8.20;99.90;;;;;;4936322;28;94244;-29
2023/03/26 09:46:27;;;;;;;11.10;3.10;;;8.10;99.90;;;;;;4904699;28;93628;-33
2023/03/26 09:49:33;;;;;;;12.02;3.22;;;8.20;99.90;;;;;;4936205;28;93162;-33
2023/03/26 09:52:29;;;;;;;10.48;3.60;;;8.20;99.90;;;;;;4915321;28;94596;-31
2023/03/26 09:55:02;;;;;;;10.02;3.42;;;8.30;99.90;;;;;;4903549;28;94669;-31
2023/03/26 09:57:56;;;;;;;7.28;3.90;;;8.40;99.90;;;;;;4918349;28;93215;-29
2023/03/26 10:00:41;;;;;;;12.98;3.72;;;8.40;99.90;;;;;;4935929;28;93385;-32
2023/03/26 10:03:24;;;;;;;18.98;4.13;;;8.40;99.90;;;;;;4935019;28;95923;-31
2023/03/26 10:06:25;;;;;;;5.32;4.07;;;8.30;99.90;;;;;;4935713;28;95542;-29
2023/03/26 10:09:06;;;;;;;5.93;2.15;;;8.40;99.90;;;;;;4935541;28;92230;-34
2023/03/26 10:11:40;;;;;;;5.60;2.97;;;8.30;99.90;;;;;;4935001;28;92520;-30
2023/03/26 10:14:16;;;;;;;5.00;2.72;;;8.30;99.90;;;;;;4935359;28;94396;-31
2023/03/26 10:17:07;;;;;;;11.18;3.08;;;8.30;99.90;;;;;;4934791;28;94262;-32
2023/03/26 10:20:08;;;;;;;6.22;2.65;;;8.20;99.90;;;;;;4935239;28;93899;-32
2023/03/26 10:22:49;;;;;;;3.85;3.30;;;8.20;99.90;;;;;;4933291;28;92874;-32
2023/03/26 10:25:39;;;;;;;7.30;3.47;;;8.20;99.90;;;;;;4932468;28;94860;-29
2023/03/26 10:28:13;;;;;;;9.63;3.03;;;8.20;99.90;;;;;;4934866;28;96042;-31
2023/03/26 10:31:00;;;;;;;7.80;3.50;;;8.20;99.90;;;;;;4935970;28;95190;-34
2023/03/26 10:33:44;;;;;;;15.07;3.45;;;8.20;99.90;;;;;;4935610;28;92873;-32
2023/03/26 10:36:28;;;;;;;4.20;2.63;;;8.30;99.90;;;;;;4934248;28;94210;-30
2023/03/26 10:39:08;;;;;;;14.00;3.13;;;8.30;99.90;;;;;;4932998;28;94760;-31
2023/03/26 10:41:58;;;;;;;6.75;2.55;;;8.30;99.90;;;;;;4936232;28;93386;-32
2023/03/26 10:44:42;;;;;;;11.65;2.90;;;8.20;99.90;;;;;;4934901;28;94203;-34
2023/03/26 10:47:32;;;;;;;4.60;2.15;;;8.20;99.90;;;;;;4935034;28;94428;-31
2023/03/26 10:50:10;;;;;;;6.63;2.75;;;8.30;99.90;;;;;;4935359;28;94199;-32
2023/03/26 10:52:55;;;;;;;10.83;3.50;;;8.20;99.90;;;;;;4935745;28;94036;-34
2023/03/26 10:55:38;;;;;;;12.45;2.35;;;8.30;99.90;;;;;;4933870;28;94331;-29
2023/03/26 10:58:28;;;;;;;11.23;3.65;;;8.40;99.90;;;;;;4934346;28;95486;-33
2023/03/26 11:00:56;;;;;;;6.55;1.92;;;8.50;99.90;;;;;;4934832;28;95036;-34
2023/03/26 11:03:51;;;;;;;10.13;3.25;;;8.50;99.90;;;;;;4935391;28;94615;-33
2023/03/26 11:06:33;;;;;;;6.95;2.75;;;8.60;99.90;;;;;;4934784;28;94868;-30
2023/03/26 11:09:25;;;;;;;11.07;4.25;;;8.40;99.90;;;;;;4934970;28;94180;-29
2023/03/26 11:11:59;;;;;;;7.82;3.88;;;8.40;99.90;;;;;;4934413;28;94209;-29
2023/03/26 11:14:34;;;;;;;8.85;2.55;;;8.40;99.90;;;;;;4935408;28;94076;-34
2023/03/26 11:17:17;;;;;;;9.32;3.78;;;8.40;99.90;;;;;;4934764;28;91771;-33
2023/03/26 11:19:56;;;;;;;14.55;2.95;;;8.30;99.90;;;;;;4934622;28;94479;-32
2023/03/26 11:22:37;;;;;;;9.18;3.22;;;8.30;99.90;;;;;;4934511;28;94318;-32
2023/03/26 11:25:20;;;;;;;5.47;3.40;;;8.30;99.90;;;;;;4937168;28;94016;-29
2023/03/26 11:28:08;;;;;;;14.75;3.53;;;8.20;99.90;;;;;;4937734;28;93105;-32
2023/03/26 11:30:57;;;;;;;4.57;3.10;;;8.20;99.90;;;;;;4938109;28;94569;-33
2023/03/26 11:33:33;;;;;;;11.93;2.33;;;8.30;99.90;;;;;;4937610;28;95023;-34
2023/03/26 11:36:04;;;;;;;22.15;4.63;;;8.40;99.90;;;;;;4938054;28;93650;-33
2023/03/26 11:38:31;;;;;;;5.95;3.28;;;8.30;99.90;;;;;;4937670;28;93168;-31
2023/03/26 11:41:00;;;;;;;12.05;4.20;;;8.40;99.90;;;;;;4937772;28;94374;-32
2023/03/26 11:43:31;;;;;;;4.30;3.17;;;8.40;99.90;;;;;;4938281;28;94565;-31
2023/03/26 11:45:58;;;;;;;6.57;2.88;;;8.40;99.90;;;;;;4919393;28;94825;-34
2023/03/26 11:48:40;;;;;;;6.40;2.90;;;8.40;99.90;;;;;;4918176;28;93506;-30
2023/03/26 11:51:31;;;;;;;15.38;3.63;;;8.40;99.90;;;;;;4917237;28;95131;-31
2023/03/26 11:53:57;;;;;;;10.48;2.83;;;8.40;99.90;;;;;;4917953;28;94387;-31
2023/03/26 11:56:48;;;;;;;8.05;2.67;;;8.40;99.90;;;;;;4950595;22;95032;-32
2023/03/26 11:59:17;;;;;;;6.25;3.28;;;8.30;99.90;;;;;;4917194;28;92948;-32
2023/03/26 12:01:50;;;;;;;8.25;3.53;;;8.40;99.90;;;;;;4915650;28;94868;-30
2023/03/26 12:04:27;;;;;;;11.50;3.40;;;8.30;99.90;;;;;;4918039;28;94121;-29
2023/03/26 12:07:03;;;;;;;10.20;3.55;;;8.30;99.90;;;;;;4918440;28;92741;-30
2023/03/26 12:09:29;;;;;;;9.93;2.65;;;8.40;99.90;;;;;;4918393;28;93556;-32
2023/03/26 12:12:01;;;;;;;21.40;3.65;;;8.20;99.90;;;;;;4917966;28;94790;-29
2023/03/26 12:14:31;;;;;;;13.52;3.95;;;8.30;99.90;;;;;;4918284;28;94046;-32
2023/03/26 12:16:56;;;;;;;12.18;3.67;;;8.40;99.90;;;;;;4918391;28;93075;-29
2023/03/26 12:19:23;;;;;;;15.70;3.22;;;8.40;99.90;;;;;;4917836;28;93714;-33
2023/03/26 12:21:51;;;;;;;9.10;3.58;;;8.40;99.90;;;;;;4916409;28;94396;-29
2023/03/26 12:24:28;;;;;;;3.20;1.98;;;8.30;99.90;;;;;;4917252;28;94109;-29
2023/03/26 12:27:27;;;;;;;8.05;2.95;;;8.40;99.90;;;;;;4918241;28;93911;-31
2023/03/26 12:30:07;;;;;;;;;;;8.40;99.90;;;;;;4916255;28;94363;-31
2023/03/26 12:32:40;;;;;;;15.43;3.13;;;8.40;99.90;;;;;;4918691;28;94604;-34
2023/03/26 12:35:12;;;;;;;11.52;3.88;;;8.50;99.90;;;;;;4916990;28;94509;-33
2023/03/26 12:37:43;;;;;;;5.10;2.85;;;8.50;99.90;;;;;;4917336;28;94191;-32
2023/03/26 12:40:23;;;;;;;7.53;3.28;;;8.40;99.90;;;;;;4917980;28;93591;-32
2023/03/26 12:42:55;;;;;;;13.07;4.50;;;8.50;99.90;;;;;;4917217;28;94513;-33
2023/03/26 12:45:37;;;;;;;10.80;3.30;;;8.50;99.90;;;;;;4916587;28;94232;-31
2023/03/26 12:48:03;;;;;;;15.38;3.78;;;8.50;99.90;;;;;;4917236;28;93257;-32
2023/03/26 12:51:05;;;;;;;6.28;2.65;;;8.50;99.90;;;;;;4916950;28;92108;-31
2023/03/26 12:53:48;;;;;;;7.65;2.22;;;8.60;99.90;;;;;;4886096;28;95734;-28
2023/03/26 12:56:34;;;;;;;4.90;2.25;;;8.50;99.90;;;;;;4916546;28;94462;-32
2023/03/26 12:59:17;;;;;;;10.30;2.42;;;8.50;99.90;;;;;;4916790;28;94420;-32
2023/03/26 13:01:51;;;;;;;5.50;2.65;;;8.60;99.90;;;;;;4917410;28;93797;-30
2023/03/26 13:05:08;;;;;;;7.75;3.58;;;8.50;99.90;;;;;;4915244;28;96151;-31
2023/03/26 13:07:51;;;;;;;12.68;5.00;;;8.60;99.90;;;;;;4883232;28;94911;-32
2023/03/26 13:10:26;;;;;;;5.93;3.15;;;8.50;99.90;;;;;;4916474;28;93637;-32
2023/03/26 13:13:20;;;;;;;10.43;3.47;;;8.50;99.90;;;;;;4918265;28;92742;-31
2023/03/26 13:15:52;;;;;;;7.55;3.58;;;8.50;99.90;;;;;;4917120;28;95169;-29
2023/03/26 13:18:36;;;;;;;13.95;4.22;;;8.40;99.90;;;;;;4916915;28;94405;-31
2023/03/26 13:21:11;;;;;;;9.07;3.30;;;8.40;99.90;;;;;;4916776;28;92178;-31
2023/03/26 13:24:05;;;;;;;5.93;2.03;;;8.50;99.90;;;;;;4918054;28;92680;-31
2023/03/26 13:26:34;;;;;;;4.63;2.28;;;8.50;99.90;;;;;;4917697;28;94833;-34
2023/03/26 13:29:34;;;;;;;7.25;2.42;;;8.50;99.90;;;;;;4917264;28;94427;-29
2023/03/26 13:32:24;;;;;;;21.13;3.88;;;8.50;99.90;;;;;;4893708;28;93280;-32